• Join FlightAware (Why Join?)
  • Login
  • US Flag 
03:17PM EDT


 

Airport Tracker/Info


-or-


 

Live Flight TrackerFlight Track Log ✈ CTL14 ✈ 30-Apr-2013 ✈ KPWK - KOSU

Flight Track Log - Related Links

Times and Time Zones

All times are in EDT time to prevent confusion due to time zone crossing. See the CTL14 flight status page for this flight to view local times or setup timezone preferences in your user account.

Time Position Orientation Groundspeed Altitude Reporting Facility
EDT Latitude Longitude Course Direction KTS MPH feet Rate Location/Type
12:03AM 42.1833 -87.7500 71° East 189 217 2,100  Level Chicago TRACON
12:04AM 42.1833 -87.6833 90° East 190 219 2,100 120 Level Chicago TRACON
12:06AM 42.1833 -87.6000 90° East 180 207 2,400 360 Climbing Chicago TRACON
12:07AM 42.1667 -87.5500 114° Southeast 140 161 3,000 600 Climbing Chicago TRACON
12:07AM 42.1500 -87.5167 124° Southeast 142 163 3,500 420 Climbing Chicago TRACON
12:08AM 41.9819 -87.5719 116° Southeast  Level FlightAware Approximate
12:08AM 42.1431 -87.5156 173° South 149 171 3,500  Level Chicago Center
12:09AM 42.1239 -87.4714 120° Southeast 144 166 4,000 480 Climbing Chicago Center
12:10AM 42.1031 -87.4253 121° Southeast 143 165 4,500 480 Climbing Chicago Center
12:11AM 42.0833 -87.3786 120° Southeast 144 166 5,000 480 Climbing Chicago Center
12:12AM 42.0625 -87.3333 122° Southeast 143 165 5,500 480 Climbing Chicago Center
12:13AM 42.0417 -87.2850 120° Southeast 147 169 6,000 420 Climbing Chicago Center
12:14AM 42.0211 -87.2358 119° Southeast 151 174 6,400 420 Climbing Chicago Center
12:15AM 41.9950 -87.1775 121° Southeast 152 175 6,900 240 Climbing Chicago Center
12:16AM 41.9731 -87.1258 120° Southeast 159 183 7,000  Climbing Chicago Center
12:17AM 41.9489 -87.0703 120° Southeast 170 196 7,000  Level Chicago Center
12:18AM 41.9236 -87.0147 121° Southeast 174 200 7,000  Level Chicago Center
12:19AM 41.8986 -86.9581 121° Southeast 176 203 7,000  Level Chicago Center
12:20AM 41.8756 -86.9025 119° Southeast 173 199 7,000  Level Chicago Center
12:21AM 41.8514 -86.8475 121° Southeast 173 199 7,000  Level Chicago Center
12:22AM 41.8278 -86.7933 120° Southeast 170 196 7,000  Level Chicago Center
12:23AM 41.8025 -86.7389 122° Southeast 172 198 7,000  Level Chicago Center
12:24AM 41.7794 -86.6864 120° Southeast 171 197 7,000 -60 Level Chicago Center
12:25AM 41.7542 -86.6306 121° Southeast 173 199 6,900 -60 Descending Chicago Center
12:27AM 41.7136 -86.5366 120° Southeast  Level FlightAware Approximate
12:30AM 41.6292 -86.3653 120° Southeast 167 192 6,900  Level Chicago Center
12:31AM 41.6042 -86.3133 123° Southeast 167 192 7,100 240 Climbing Chicago Center
12:32AM 41.5808 -86.2606 121° Southeast 166 191 7,500 420 Climbing Chicago Center
12:33AM 41.5589 -86.2131 122° Southeast 156 180 8,000 420 Climbing Chicago Center
12:34AM 41.5583 -86.1540 119° Southeast  Level FlightAware Approximate
12:34AM 41.5375 -86.1672 122° Southeast 149 171 8,400  Level Chicago Center
12:35AM 41.5352 -86.0997 120° Southeast  Level FlightAware Approximate
12:35AM 41.5119 -86.1125 122° Southeast 145 167 8,900  Level Chicago Center
12:36AM 41.4892 -86.0647 122° Southeast 150 173 9,000  Climbing Chicago Center
12:37AM 41.4653 -86.0119 121° Southeast 162 186 9,000  Level Chicago Center
12:38AM 41.4403 -85.9594 122° Southeast 167 192 9,000  Level Chicago Center
12:39AM 41.4167 -85.9083 122° Southeast 165 190 9,000  Level Chicago Center
12:40AM 41.3928 -85.8553 121° Southeast 166 191 9,000  Level Chicago Center
12:41AM 41.3686 -85.8033 122° Southeast 167 192 9,000  Level Chicago Center
12:42AM 41.3422 -85.7528 125° Southeast 167 192 9,000  Level Chicago Center
12:43AM 41.3189 -85.7008 121° Southeast 165 190 9,000  Level Chicago Center
12:44AM 41.2942 -85.6486 122° Southeast 167 192 9,000 -60 Level Chicago Center
12:45AM 41.2689 -85.5953 122° Southeast 170 196 8,900  Descending Chicago Center
12:46AM 41.2456 -85.5433 121° Southeast 167 192 9,000  Climbing Chicago Center
12:47AM 41.2217 -85.4933 122° Southeast 162 186 8,900 -60 Descending Chicago Center
12:48AM 41.1944 -85.4433 126° Southeast 167 192 8,900  Level Chicago Center
12:49AM 41.1728 -85.3897 118° Southeast 166 191 8,900  Level Chicago Center
12:50AM 41.1486 -85.3406 123° Southeast 163 188 9,000  Climbing Chicago Center
12:51AM 41.1256 -85.2906 121° Southeast 161 185 9,000  Level Chicago Center
12:52AM 41.1025 -85.2375 120° Southeast 164 189 9,000  Level Chicago Center
12:53AM 41.0775 -85.1881 124° Southeast 163 188 9,000  Level Chicago Center
12:54AM 41.0544 -85.1356 120° Southeast 164 189 9,000  Level Chicago Center
12:56AM 41.0300 -85.0822 126° Southeast  Level Estimated
12:57AM 40.9906 -85.0081 126° Southeast 160 184 9,200  Level Indianapolis Center
12:57AM 40.9811 -84.9875 121° Southeast 162 186 9,100 -180 Descending Chicago Center
12:58AM 40.9594 -84.9367 119° Southeast 159 183 9,000 -60 Descending Chicago Center
12:59AM 40.9344 -84.8831 122° Southeast 168 193 9,000  Level Chicago Center
01:00AM 40.9075 -84.8342 126° Southeast 167 192 9,000  Level Chicago Center
01:01AM 40.8739 -84.7747 127° Southeast 169 194 9,000 -60 Level Chicago Center
01:02AM 40.8533 -84.7217 117° Southeast 164 189 8,900  Descending Chicago Center
01:03AM 40.8264 -84.6728 126° Southeast 164 189 9,000  Climbing Chicago Center
01:04AM 40.8039 -84.6231 121° Southeast 159 183 9,000  Level Chicago Center
01:05AM 40.7783 -84.5714 123° Southeast 165 190 9,000 -60 Level Chicago Center
01:06AM 40.7547 -84.5200 121° Southeast 166 191 8,900 -60 Descending Chicago Center
01:07AM 40.7308 -84.4681 121° Southeast 166 191 8,900  Level Chicago Center
01:08AM 40.7056 -84.4183 124° Southeast 165 190 8,900  Level Chicago Center
01:09AM 40.6819 -84.3672 121° Southeast 165 190 8,900 60 Level Chicago Center
01:10AM 40.6714 -84.3450 122° Southeast 161 185 9,000 60 Climbing Indianapolis Center
01:11AM 40.6469 -84.2939 122° Southeast 164 189 9,000 60 Level Indianapolis Center
01:11AM 40.6342 -84.2692 124° Southeast 161 185 9,100  Climbing Indianapolis Center
01:12AM 40.6222 -84.2433 121° Southeast 162 186 9,000 -240 Descending Indianapolis Center
01:12AM 40.6106 -84.2222 126° Southeast 163 188 8,900 -300 Descending Indianapolis Center
01:13AM 40.5981 -84.1897 117° Southeast 168 193 8,700 -360 Descending Indianapolis Center
01:14AM 40.5714 -84.1344 122° Southeast 176 203 8,300 -360 Descending Indianapolis Center
01:15AM 40.5450 -84.0781 122° Southeast 178 205 8,000 -300 Descending Indianapolis Center
01:16AM 40.5186 -84.0219 122° Southeast 178 205 7,800 -240 Descending Indianapolis Center
01:17AM 40.4942 -83.9664 120° Southeast 177 204 7,600 -300 Descending Indianapolis Center
01:18AM 40.4689 -83.9103 121° Southeast 176 203 7,300 -360 Descending Indianapolis Center
01:19AM 40.4428 -83.8561 122° Southeast 175 201 6,900 -720 Descending Indianapolis Center
01:20AM 40.4153 -83.7983 122° Southeast 182 209 5,900 -960 Descending Indianapolis Center
01:21AM 40.3858 -83.7378 123° Southeast 189 217 5,000 -960 Descending Indianapolis Center
01:21AM 40.3767 -83.7194 123° Southeast 193 222 4,700 -1,020 Descending Indianapolis Center
01:22AM 40.3586 -83.6767 119° Southeast 191 220 4,000 -720 Descending Indianapolis Center
01:22AM 40.3475 -83.6583 128° Southeast 192 221 4,000  Level Indianapolis Center
01:23AM 40.3308 -83.6206 120° Southeast 189 217 4,000  Level Indianapolis Center
01:23AM 40.3222 -83.6058 127° Southeast 166 191 4,000  Level Indianapolis Center
01:24AM 40.3072 -83.5692 118° Southeast 175 201 4,000  Level Indianapolis Center
01:24AM 40.3006 -83.5567 125° Southeast 164 189 4,000 -240 Level Indianapolis Center
01:25AM 40.2847 -83.5172 118° Southeast 166 191 3,800 -300 Descending Indianapolis Center
01:25AM 40.2772 -83.5047 128° Southeast 168 193 3,700 -300 Descending Indianapolis Center
01:26AM 40.2583 -83.4636 121° Southeast 169 194 3,500 -240 Descending Indianapolis Center
01:26AM 40.2497 -83.4494 129° Southeast 174 200 3,500 -240 Level Indianapolis Center
01:27AM 40.2331 -83.4100 119° Southeast 171 197 3,300 -240 Descending Indianapolis Center
01:27AM 40.2261 -83.3972 125° Southeast 169 194 3,300 -120 Level Indianapolis Center
01:28AM 40.2114 -83.3636 120° Southeast 171 197 3,200 -180 Descending Indianapolis Center
01:30AM 40.1764 -83.2628 127° Southeast  Level FlightAware Approximate
01:37AM 40.0798 -83.0732 123° Southeast  Level Estimated
01:38AM 40.0798 -83.0732 123° Southeast  Level Estimated